Time;durP1;ratioP1;P1;durP2;ratioP2;P2;SDS_P1;SDS_P2;PMS_P1;PMS_P2;Temp;Humidity;BMP_temperature;BMP_pressure;BME280_temperature;BME280_humidity;BME280_pressure;Samples;Min_cycle;Max_cycle;Signal;HPM_P1;HPM_P2
2023/01/08 00:00:34;;;;;;;2.78;2.17;;;;;;;-146.25;74.50;52441.19;2088417;28;38930;-76
2023/01/08 00:01:36;;;;;;;2.80;1.95;;;;;;;-146.25;75.07;52449.31;2079281;28;35404;-76
2023/01/08 00:02:38;;;;;;;2.78;2.35;;;;;;;-146.25;74.32;52449.31;2079533;28;36062;-76
2023/01/08 00:03:40;;;;;;;2.90;2.17;;;;;;;-146.25;74.79;52445.25;2089231;28;20151;-76
2023/01/08 00:04:42;;;;;;;2.75;2.25;;;;;;;-146.25;73.95;52471.59;2079373;28;41108;-76
2023/01/08 00:05:46;;;;;;;2.60;2.15;;;;;;;-146.25;74.23;52422.94;2080324;28;36107;-76
2023/01/08 00:06:48;;;;;;;3.22;2.35;;;;;;;-146.25;74.44;52424.97;2087703;28;38414;-76
2023/01/08 00:07:51;;;;;;;2.90;2.28;;;;;;;-146.25;74.39;52453.34;2079703;28;39483;-76
2023/01/08 00:08:53;;;;;;;2.70;2.30;;;;;;;-146.25;74.52;52424.97;2079565;28;38174;-76
2023/01/08 00:09:57;;;;;;;2.67;1.95;;;;;;;-146.25;75.71;52441.19;2088892;28;26031;-75
2023/01/08 00:10:59;;;;;;;2.53;2.28;;;;;;;-146.25;74.79;52429.03;2088342;28;34820;-76
2023/01/08 00:12:01;;;;;;;3.38;2.00;;;;;;;-146.25;75.10;52427.00;2078441;28;41844;-76
2023/01/08 00:13:04;;;;;;;2.25;1.88;;;;;;;-146.25;74.61;52455.38;2079061;28;37236;-76
2023/01/08 00:14:06;;;;;;;4.07;2.00;;;;;;;-146.25;74.91;52457.41;2088110;28;38962;-75
2023/01/08 00:15:08;;;;;;;2.40;2.00;;;;;;;-146.25;75.92;52429.03;2088029;28;39978;-76
2023/01/08 00:16:14;;;;;;;2.55;2.13;;;;;;;-146.25;75.90;52449.31;2088264;28;37979;-76
2023/01/08 00:17:15;;;;;;;2.38;2.00;;;;;;;-146.25;75.08;52455.38;2088481;28;39623;-76
2023/01/08 00:18:17;;;;;;;4.35;2.05;;;;;;;-146.25;75.68;52455.38;2088494;28;38084;-76
2023/01/08 00:19:19;;;;;;;2.13;1.92;;;;;;;-146.25;76.23;52489.84;2088680;28;20891;-76
2023/01/08 00:20:21;;;;;;;4.03;1.98;;;;;;;-146.25;76.08;52439.16;2088175;28;39705;-75
2023/01/08 00:21:23;;;;;;;3.88;2.08;;;;;;;-146.25;75.41;52461.47;2088176;28;35757;-76
2023/01/08 00:22:24;;;;;;;2.30;1.83;;;;;;;-146.25;75.50;52461.47;2088163;28;40815;-75
2023/01/08 00:23:26;;;;;;;2.55;1.90;;;;;;;-146.25;75.34;52427.00;2087925;28;42655;-76
2023/01/08 00:24:28;;;;;;;3.03;2.20;;;;;;;-146.25;76.21;52416.84;2078706;28;39834;-76
2023/01/08 00:25:31;;;;;;;2.38;2.10;;;;;;;-146.25;76.23;52451.31;2079041;28;41134;-75
2023/01/08 00:26:33;;;;;;;3.08;2.25;;;;;;;-146.25;75.87;52433.06;2078237;28;40279;-75
2023/01/08 00:27:34;;;;;;;3.35;2.30;;;;;;;-146.25;75.74;52463.50;2079423;28;34452;-76
2023/01/08 00:28:37;;;;;;;3.55;2.42;;;;;;;-146.25;76.04;52459.44;2079798;28;20038;-75
2023/01/08 00:29:39;;;;;;;2.97;2.25;;;;;;;-146.25;76.27;52437.13;2080024;28;20054;-75
2023/01/08 00:30:42;;;;;;;3.75;2.28;;;;;;;-146.25;76.23;52487.81;2079433;28;37813;-75
2023/01/08 00:31:44;;;;;;;2.67;2.10;;;;;;;-146.25;76.48;52457.41;2087761;28;42320;-75
2023/01/08 00:32:45;;;;;;;2.55;2.10;;;;;;;-146.25;76.54;52453.34;2088002;28;37605;-75
2023/01/08 00:33:47;;;;;;;3.15;2.10;;;;;;;-146.25;76.34;52453.34;2079509;28;38205;-75
2023/01/08 00:34:49;;;;;;;2.20;1.95;;;;;;;-146.25;76.47;52455.38;2079267;28;40443;-75
2023/01/08 00:35:50;;;;;;;2.85;2.10;;;;;;;-146.25;76.73;52429.03;2070855;28;38876;-76
2023/01/08 00:36:52;;;;;;;3.45;2.20;;;;;;;-146.25;76.81;52445.25;2071237;28;38801;-75
2023/01/08 00:37:54;;;;;;;2.47;2.28;;;;;;;-146.25;77.40;52457.41;2079450;28;40740;-75
2023/01/08 00:38:57;;;;;;;4.97;2.30;;;;;;;-146.25;77.06;52449.31;2079024;28;42044;-75
2023/01/08 00:39:59;;;;;;;3.25;1.98;;;;;;;-146.25;76.83;52433.06;2080364;28;20038;-75
2023/01/08 00:41:01;;;;;;;2.75;2.45;;;;;;;-146.25;77.27;52420.91;2078891;28;40610;-75
2023/01/08 00:42:03;;;;;;;3.13;2.50;;;;;;;-146.25;77.25;52461.47;2088090;28;38025;-75
2023/01/08 00:43:05;;;;;;;2.25;2.05;;;;;;;-146.25;77.92;52396.59;2079411;28;20054;-75
2023/01/08 00:44:07;;;;;;;2.25;1.90;;;;;;;-146.25;78.09;52457.41;2071352;28;42962;-75
2023/01/08 00:45:12;;;;;;;2.95;2.30;;;;;;;-146.25;78.32;52439.16;2079610;28;40816;-75
2023/01/08 00:46:13;;;;;;;2.47;2.05;;;;;;;-146.25;78.47;52471.59;2088599;28;20046;-75
2023/01/08 00:47:15;;;;;;;3.38;2.53;;;;;;;-146.25;78.19;52453.34;2088107;28;40263;-75
2023/01/08 00:48:17;;;;;;;2.50;2.03;;;;;;;-146.25;78.22;52469.56;2088770;28;21821;-75
2023/01/08 00:49:18;;;;;;;3.17;2.50;;;;;;;-146.25;78.23;52439.16;2087782;28;42841;-75
2023/01/08 00:50:20;;;;;;;2.50;2.30;;;;;;;-146.25;78.35;52451.31;2088661;28;33582;-75
2023/01/08 00:51:22;;;;;;;4.43;2.50;;;;;;;-146.25;78.95;52451.31;2088576;28;20831;-75
2023/01/08 00:52:24;;;;;;;3.35;2.10;;;;;;;-146.25;79.01;52429.03;2088026;28;43247;-75
2023/01/08 00:53:28;;;;;;;2.90;2.20;;;;;;;-146.25;78.94;52439.16;2078670;28;40355;-75
2023/01/08 00:54:30;;;;;;;4.05;2.15;;;;;;;-146.25;79.56;52435.09;2079799;28;39249;-75
2023/01/08 00:55:31;;;;;;;4.97;2.47;;;;;;;-146.25;79.11;52477.69;2087898;28;41466;-75
2023/01/08 00:56:33;;;;;;;2.22;2.03;;;;;;;-146.25;79.73;52457.41;2079197;28;38376;-75
2023/01/08 00:57:39;;;;;;;4.10;2.22;;;;;;;-146.25;79.46;52429.03;2079025;28;38065;-75
2023/01/08 00:58:41;;;;;;;3.78;2.17;;;;;;;-146.25;79.29;52477.69;2088125;28;40605;-75
2023/01/08 00:59:45;;;;;;;2.95;2.40;;;;;;;-146.25;79.34;52453.34;2078785;28;37222;-75
2023/01/08 01:00:47;;;;;;;2.47;2.20;;;;;;;-146.25;79.61;52424.97;2079484;28;43171;-75
2023/01/08 01:01:49;;;;;;;3.25;2.25;;;;;;;-146.25;79.78;52443.22;2078883;28;36972;-75
2023/01/08 01:02:53;;;;;;;3.00;2.00;;;;;;;-146.25;80.25;52453.34;2079276;28;39586;-75
2023/01/08 01:03:54;;;;;;;2.45;2.17;;;;;;;-146.25;79.77;52473.63;2087809;28;41731;-75
2023/01/08 01:04:56;;;;;;;2.80;2.50;;;;;;;-146.25;80.11;52433.06;2088906;28;20044;-75
2023/01/08 01:06:04;;;;;;;2.55;2.35;;;;;;;-146.25;80.48;52439.16;2078941;28;36431;-75
2023/01/08 01:07:06;;;;;;;3.40;2.30;;;;;;;-146.25;80.45;52457.41;2080188;28;38708;-75
2023/01/08 01:08:08;;;;;;;4.22;2.35;;;;;;;-146.25;80.32;52473.63;2087651;28;40023;-75
2023/01/08 01:09:13;;;;;;;4.43;2.10;;;;;;;-146.25;80.44;52424.97;2088102;28;39077;-75
2023/01/08 01:10:16;;;;;;;5.38;2.88;;;;;;;-146.25;80.08;52408.75;2088767;28;20037;-75
2023/01/08 01:11:24;;;;;;;2.70;2.30;;;;;;;-146.25;80.17;52463.50;2078746;28;42330;-75
2023/01/08 01:12:29;;;;;;;2.63;2.40;;;;;;;-146.25;80.50;52410.78;2073199;28;20052;-75
2023/01/08 01:13:30;;;;;;;6.50;2.55;;;;;;;-146.25;80.28;52388.47;2080869;28;20167;-75
2023/01/08 01:14:32;;;;;;;2.40;2.20;;;;;;;-146.25;81.10;52489.84;2087730;28;41622;-75
2023/01/08 01:15:34;;;;;;;3.35;2.58;;;;;;;-146.25;81.57;52400.63;2088137;28;26942;-75
2023/01/08 01:16:40;;;;;;;4.72;2.25;;;;;;;-146.25;80.83;52420.91;2087901;28;41799;-75
2023/01/08 01:17:44;;;;;;;2.40;2.15;;;;;;;-146.25;81.08;52412.81;2087719;28;41546;-75
2023/01/08 01:18:45;;;;;;;2.40;2.08;;;;;;;-146.25;81.00;52437.13;2087239;28;40504;-75
2023/01/08 01:19:47;;;;;;;3.00;2.20;;;;;;;-146.25;80.93;52402.66;2087868;28;41994;-75
2023/01/08 01:20:50;;;;;;;2.88;2.20;;;;;;;-146.25;80.56;52449.31;2078906;28;38369;-75
2023/01/08 01:21:51;;;;;;;2.63;2.00;;;;;;;-146.25;80.98;52449.31;2079047;28;42147;-75
2023/01/08 01:22:53;;;;;;;3.92;2.80;;;;;;;-146.25;81.16;52475.66;2087715;28;38805;-75
2023/01/08 01:23:58;;;;;;;2.88;2.47;;;;;;;-146.25;81.32;52410.78;2088629;28;20100;-75
2023/01/08 01:25:00;;;;;;;3.25;2.20;;;;;;;-146.25;81.60;52467.56;2087750;28;42145;-75
2023/01/08 01:26:04;;;;;;;2.40;2.03;;;;;;;-146.25;81.39;52437.13;2079505;28;20864;-75
2023/01/08 01:27:06;;;;;;;2.72;2.42;;;;;;;-146.25;81.17;52439.16;2079577;28;40362;-75
2023/01/08 01:28:08;;;;;;;2.97;2.15;;;;;;;-146.25;81.15;52384.41;2087815;28;22500;-75
2023/01/08 01:29:09;;;;;;;3.97;2.20;;;;;;;-146.25;81.38;52429.03;2087774;28;39155;-75
2023/01/08 01:30:11;;;;;;;2.83;2.08;;;;;;;-146.25;81.04;52416.84;2087828;28;41165;-75
2023/01/08 01:31:13;;;;;;;3.00;2.30;;;;;;;-146.25;80.88;52473.63;2087840;28;41040;-74
2023/01/08 01:32:15;;;;;;;2.80;2.28;;;;;;;-146.25;81.65;52402.66;2087837;28;39514;-75
2023/01/08 01:33:16;;;;;;;2.67;2.10;;;;;;;-146.25;80.94;52463.50;2088032;28;35819;-75
2023/01/08 01:34:20;;;;;;;2.83;2.35;;;;;;;-146.25;80.98;52424.97;2079283;28;38510;-75
2023/01/08 01:35:23;;;;;;;3.00;2.30;;;;;;;-146.25;81.49;52435.09;2072407;28;20666;-75
2023/01/08 01:36:26;;;;;;;2.30;2.03;;;;;;;-146.25;80.80;52420.91;2071533;28;36933;-75
2023/01/08 01:37:28;;;;;;;3.67;2.10;;;;;;;-146.25;81.00;52477.69;2078589;28;43126;-75
2023/01/08 01:38:32;;;;;;;3.10;2.20;;;;;;;-146.25;81.70;52418.88;2088644;28;20037;-75
2023/01/08 01:39:33;;;;;;;4.47;2.20;;;;;;;-146.25;81.42;52481.75;2078244;28;42916;-75
2023/01/08 01:40:43;;;;;;;2.25;2.05;;;;;;;-146.25;81.73;52451.31;2071093;28;39119;-75
2023/01/08 01:41:45;;;;;;;2.47;1.95;;;;;;;-146.25;81.84;52431.06;2079247;28;36077;-75
2023/01/08 01:42:50;;;;;;;3.95;2.20;;;;;;;-146.25;81.55;52457.41;2078109;28;41221;-75
2023/01/08 01:43:54;;;;;;;2.88;2.55;;;;;;;-146.25;81.80;52445.25;2078850;28;40508;-75
2023/01/08 01:44:56;;;;;;;2.50;2.10;;;;;;;-146.25;81.37;52467.56;2078579;28;38273;-75
2023/01/08 01:45:57;;;;;;;3.05;2.20;;;;;;;-146.25;81.99;52441.19;2079438;28;42737;-75
2023/01/08 01:47:11;;;;;;;2.65;2.13;;;;;;;-146.25;81.66;52429.03;2078818;28;35863;-75
2023/01/08 01:48:14;;;;;;;3.30;2.20;;;;;;;-146.25;81.89;52455.38;2072340;28;39986;-75
2023/01/08 01:49:21;;;;;;;3.88;2.60;;;;;;;-146.25;82.28;52441.19;2078370;28;38614;-75
2023/01/08 01:50:42;;;;;;;2.60;2.33;;;;;;;-146.25;81.80;52453.34;2080018;28;36209;-74
2023/01/08 01:51:50;;;;;;;3.40;2.95;;;;;;;-146.25;81.80;52420.91;2078002;28;44722;-74
2023/01/08 01:52:54;;;;;;;3.22;2.05;;;;;;;-146.25;81.94;52451.31;2079670;28;38897;-74
2023/01/08 01:53:56;;;;;;;2.58;2.38;;;;;;;-146.25;82.30;52443.22;2087474;28;42416;-74
2023/01/08 01:55:00;;;;;;;3.22;2.40;;;;;;;-146.25;81.71;52435.09;2087970;28;27374;-74
2023/01/08 01:56:06;;;;;;;2.70;2.50;;;;;;;-146.25;81.82;52418.88;2078460;28;36467;-74
2023/01/08 01:57:10;;;;;;;3.85;2.60;;;;;;;-146.25;81.75;52388.47;2063392;28;37367;-74
2023/01/08 01:58:22;;;;;;;2.88;2.58;;;;;;;-146.25;82.56;52453.34;2072265;28;36586;-74
2023/01/08 01:59:23;;;;;;;2.90;2.42;;;;;;;-146.25;82.69;52388.47;2078443;28;40922;-74
2023/01/08 02:00:27;;;;;;;3.83;2.13;;;;;;;-146.25;82.20;52457.41;2080225;28;40380;-74
2023/01/08 02:01:30;;;;;;;3.67;2.60;;;;;;;-146.25;82.13;52453.34;2077339;28;40361;-74
2023/01/08 02:02:32;;;;;;;5.47;3.97;;;;;;;-146.25;82.61;52402.66;2079576;28;38662;-74
2023/01/08 02:03:39;;;;;;;4.18;2.92;;;;;;;-146.25;83.08;52431.06;2088325;28;20616;-74
2023/01/08 02:04:41;;;;;;;3.03;2.50;;;;;;;-146.25;83.35;52435.09;2087826;28;38077;-74
2023/01/08 02:05:53;;;;;;;3.75;2.58;;;;;;;-146.25;83.55;52412.81;2078706;28;40421;-74
2023/01/08 02:07:07;;;;;;;4.63;2.75;;;;;;;-146.25;83.65;52424.97;2080962;28;36288;-73
2023/01/08 02:08:19;;;;;;;4.38;2.72;;;;;;;-146.25;83.57;52459.44;2087226;28;39824;-73
2023/01/08 02:10:00;;;;;;;3.55;2.85;;;;;;;-146.25;83.59;52465.53;2079544;28;26958;-75
2023/01/08 02:11:24;;;;;;;2.85;2.63;;;;;;;-146.25;84.01;52412.81;2086135;28;41572;-75
2023/01/08 02:12:34;;;;;;;2.92;2.58;;;;;;;-146.25;83.44;52429.03;2087319;28;42183;-75
2023/01/08 02:13:49;;;;;;;3.30;3.00;;;;;;;-146.25;83.99;52479.72;2087626;28;40474;-75
2023/01/08 02:15:12;;;;;;;3.40;3.08;;;;;;;-146.25;83.86;52437.13;2079453;28;20046;-76
2023/01/08 02:16:33;;;;;;;3.25;2.85;;;;;;;-146.25;84.12;52439.16;2083771;28;43334;-73
2023/01/08 02:17:57;;;;;;;6.57;2.95;;;;;;;-146.25;84.28;52429.03;2088629;28;20072;-73
2023/01/08 02:19:47;;;;;;;3.15;2.85;;;;;;;-146.25;84.20;52439.16;2078513;28;37563;-73
2023/01/08 02:20:56;;;;;;;3.80;2.90;;;;;;;-146.25;84.21;52429.03;2081592;28;36239;-74
2023/01/08 02:22:20;;;;;;;2.90;2.60;;;;;;;-146.25;84.89;52441.19;2079040;28;38570;-74
2023/01/08 02:23:52;;;;;;;4.38;2.97;;;;;;;-146.25;84.99;52416.84;2074555;28;42214;-74
2023/01/08 02:25:21;;;;;;;3.78;3.10;;;;;;;-146.25;84.45;52420.91;2078798;28;41054;-73
2023/01/08 02:26:34;;;;;;;4.22;2.92;;;;;;;-146.25;84.34;52388.47;2084240;28;40973;-74
2023/01/08 02:27:39;;;;;;;3.20;2.90;;;;;;;-146.25;84.41;52447.28;2078858;28;42561;-74
2023/01/08 02:28:48;;;;;;;3.72;3.10;;;;;;;-146.25;84.86;52435.09;2064421;28;20084;-74
2023/01/08 02:29:55;;;;;;;4.38;3.67;;;;;;;-146.25;84.84;52435.09;2074571;28;20038;-73
2023/01/08 02:30:58;;;;;;;6.53;3.75;;;;;;;-146.25;84.21;52441.19;2078011;28;40112;-73
2023/01/08 02:32:01;;;;;;;4.55;3.97;;;;;;;-146.25;84.39;52447.28;2080117;28;20383;-73
2023/01/08 02:33:02;;;;;;;3.65;2.90;;;;;;;-146.25;84.85;52412.81;2078244;28;41149;-74
2023/01/08 02:34:06;;;;;;;3.25;2.95;;;;;;;-146.25;84.99;52441.19;2078765;28;39395;-73
2023/01/08 02:35:10;;;;;;;3.58;3.20;;;;;;;-146.25;85.16;52469.56;2078509;28;28702;-74
2023/01/08 02:36:16;;;;;;;3.97;3.40;;;;;;;-146.25;84.57;52449.31;2071302;28;40653;-74
2023/01/08 02:37:18;;;;;;;3.95;2.78;;;;;;;-146.25;84.98;52453.34;2079917;28;20377;-74
2023/01/08 02:38:22;;;;;;;3.72;2.90;;;;;;;-146.25;85.24;52461.47;2087632;28;39862;-74
2023/01/08 02:39:42;;;;;;;3.95;3.25;;;;;;;-146.25;84.97;52451.31;2086342;28;41336;-74
2023/01/08 02:40:57;;;;;;;3.70;3.28;;;;;;;-146.25;85.15;52424.97;2086935;28;41014;-73
2023/01/08 02:42:51;;;;;;;5.55;2.80;;;;;;;-146.25;85.10;52467.56;2079561;28;41271;-74
2023/01/08 02:43:58;;;;;;;3.35;2.97;;;;;;;-146.25;84.98;52392.53;2086941;28;39749;-74
2023/01/08 02:45:24;;;;;;;3.40;3.10;;;;;;;-146.25;84.68;52437.13;2077802;28;41784;-73
2023/01/08 02:46:31;;;;;;;3.75;2.95;;;;;;;-146.25;85.06;52483.78;2082830;28;38479;-74
2023/01/08 02:47:54;;;;;;;3.50;3.20;;;;;;;-146.25;84.76;52467.56;2077851;28;44955;-74
2023/01/08 02:49:08;;;;;;;3.05;2.75;;;;;;;-146.25;84.88;52437.13;2077211;28;37289;-74
2023/01/08 02:50:52;;;;;;;4.20;3.28;;;;;;;-146.25;85.21;52429.03;2083458;28;20142;-75
2023/01/08 02:51:56;;;;;;;3.30;3.00;;;;;;;-146.25;84.48;52433.06;2087187;28;20123;-73
2023/01/08 02:53:13;;;;;;;3.35;3.05;;;;;;;-146.25;84.50;52453.34;2084636;28;40601;-73
2023/01/08 02:54:28;;;;;;;3.25;2.95;;;;;;;-146.25;84.61;52445.25;2081851;28;44196;-74
2023/01/08 02:55:33;;;;;;;5.90;3.63;;;;;;;-146.25;84.17;52479.72;2088277;28;29346;-73
2023/01/08 02:56:42;;;;;;;4.97;3.05;;;;;;;-146.25;84.22;52457.41;2080829;28;40988;-73
2023/01/08 02:57:45;;;;;;;5.38;3.95;;;;;;;-146.25;84.11;52453.34;2080668;28;44374;-73
2023/01/08 02:58:49;;;;;;;3.22;2.92;;;;;;;-146.25;84.40;52471.59;2079732;28;35163;-73
2023/01/08 02:59:51;;;;;;;2.97;2.50;;;;;;;-146.25;84.49;52469.56;2080905;28;20921;-73
2023/01/08 03:00:53;;;;;;;3.22;2.90;;;;;;;-146.25;84.16;52449.31;2083290;28;20049;-73
2023/01/08 03:01:56;;;;;;;3.25;2.92;;;;;;;-146.25;83.93;52429.03;2078629;28;41872;-73
2023/01/08 03:03:08;;;;;;;7.47;3.30;;;;;;;-146.25;84.24;52449.31;2079473;28;40966;-72
2023/01/08 03:04:20;;;;;;;4.43;3.38;;;;;;;-146.25;84.42;52435.09;2080326;28;20042;-72
2023/01/08 03:05:26;;;;;;;3.95;2.63;;;;;;;-146.25;83.98;52433.06;2082415;28;37842;-73
2023/01/08 03:06:30;;;;;;;4.80;3.10;;;;;;;-146.25;84.24;52453.34;2079063;28;40704;-73
2023/01/08 03:07:32;;;;;;;4.32;2.90;;;;;;;-146.25;84.32;52406.72;2072387;28;35769;-72
2023/01/08 03:08:39;;;;;;;4.50;3.08;;;;;;;-146.25;84.71;52441.19;2080207;28;23579;-73
2023/01/08 03:09:41;;;;;;;3.70;2.70;;;;;;;-146.25;83.90;52437.13;2089564;28;20966;-73
2023/01/08 03:10:48;;;;;;;3.50;2.42;;;;;;;-146.25;84.63;52420.91;2078855;28;37805;-73
2023/01/08 03:12:08;;;;;;;4.22;3.50;;;;;;;-146.25;84.30;52489.84;2073435;28;20808;-73
2023/01/08 03:13:29;;;;;;;7.55;4.45;;;;;;;-146.25;84.33;52431.06;2073923;28;38011;-73
2023/01/08 03:14:48;;;;;;;3.03;2.72;;;;;;;-146.25;84.01;52453.34;2075499;28;41878;-73
2023/01/08 03:15:55;;;;;;;3.03;2.65;;;;;;;-146.25;84.51;52424.97;2082686;28;37541;-73
2023/01/08 03:17:04;;;;;;;4.20;2.83;;;;;;;-146.25;84.14;52465.53;2087746;28;41870;-73
2023/01/08 03:18:12;;;;;;;3.40;3.10;;;;;;;-146.25;84.39;52451.31;2089025;28;20072;-74
2023/01/08 03:19:24;;;;;;;3.08;2.78;;;;;;;-146.25;84.38;52459.44;2079150;28;40301;-74
2023/01/08 03:20:27;;;;;;;3.40;2.90;;;;;;;-146.25;84.22;52477.69;2083345;28;40653;-73
2023/01/08 03:21:30;;;;;;;3.95;2.90;;;;;;;-146.25;84.30;52433.06;2079151;28;35791;-74
2023/01/08 03:22:37;;;;;;;2.90;2.60;;;;;;;-146.25;84.54;52453.34;2078910;28;37068;-74
2023/01/08 03:23:43;;;;;;;2.83;2.53;;;;;;;-146.25;84.05;52447.28;2080947;28;20815;-74
2023/01/08 03:24:50;;;;;;;3.03;2.65;;;;;;;-146.25;84.25;52420.91;2088124;28;38921;-75
2023/01/08 03:25:56;;;;;;;4.27;2.80;;;;;;;-146.25;84.24;52465.53;2080040;28;20081;-75
2023/01/08 03:27:03;;;;;;;4.25;2.85;;;;;;;-146.25;84.20;52459.44;2073012;28;20034;-74
2023/01/08 03:28:12;;;;;;;4.40;2.67;;;;;;;-146.25;84.27;52418.88;2080243;28;38510;-74
2023/01/08 03:29:19;;;;;;;3.88;3.03;;;;;;;-146.25;84.48;52447.28;2079682;28;20049;-73
2023/01/08 03:30:25;;;;;;;4.07;3.20;;;;;;;-146.25;84.26;52463.50;2073162;28;38650;-74
2023/01/08 03:31:29;;;;;;;2.97;2.70;;;;;;;-146.25;84.59;52445.25;2072719;28;30435;-76
2023/01/08 03:32:32;;;;;;;3.85;2.92;;;;;;;-146.25;84.82;52483.78;2080581;28;37821;-75
2023/01/08 03:33:35;;;;;;;5.10;2.90;;;;;;;-146.25;84.40;52453.34;2085957;28;42246;-76
2023/01/08 03:34:41;;;;;;;3.97;2.75;;;;;;;-146.25;84.40;52461.47;2080030;28;20041;-74
2023/01/08 03:35:48;;;;;;;3.35;2.60;;;;;;;-146.25;84.13;52437.13;2071311;28;39734;-76
2023/01/08 03:36:56;;;;;;;3.60;2.78;;;;;;;-146.25;83.75;52447.28;2072751;28;40174;-76
2023/01/08 03:38:13;;;;;;;2.90;2.60;;;;;;;-146.25;83.93;52447.28;2070636;28;40741;-75
2023/01/08 03:39:25;;;;;;;2.80;2.50;;;;;;;-146.25;83.81;52465.53;2066162;28;38713;-74
2023/01/08 03:40:35;;;;;;;3.00;2.70;;;;;;;-146.25;83.87;52465.53;2073443;28;39770;-75
2023/01/08 03:41:37;;;;;;;;;;;;;;;-146.25;84.35;52437.13;2081567;28;41419;-75
2023/01/08 03:42:39;;;;;;;3.58;2.90;;;;;;;-146.25;84.81;52471.59;2088157;28;19933;-75
2023/01/08 03:43:41;;;;;;;3.58;3.05;;;;;;;-146.25;84.36;52437.13;2087670;28;37421;-71
2023/01/08 03:44:42;;;;;;;3.92;3.13;;;;;;;-146.25;85.11;52429.03;2088466;28;34396;-72
2023/01/08 03:45:52;;;;;;;3.78;3.28;;;;;;;-146.25;84.58;52437.13;2087560;28;38500;-74
2023/01/08 03:46:56;;;;;;;3.47;3.00;;;;;;;-146.25;84.74;52418.88;2078034;28;40264;-75
2023/01/08 03:48:01;;;;;;;3.55;2.80;;;;;;;-146.25;84.98;52416.84;2063897;28;20919;-74
2023/01/08 03:49:05;;;;;;;3.60;2.90;;;;;;;-146.25;84.86;52451.31;2071960;28;21050;-74
2023/01/08 03:50:16;;;;;;;4.00;3.30;;;;;;;-146.25;84.56;52429.03;2085009;28;35838;-75
2023/01/08 03:51:18;;;;;;;3.40;2.70;;;;;;;-146.25;84.83;52473.63;2094839;28;37889;-74
2023/01/08 03:52:25;;;;;;;4.00;2.88;;;;;;;-146.25;84.86;52424.97;2086718;28;42366;-74
2023/01/08 03:53:28;;;;;;;3.00;2.70;;;;;;;-146.25;84.21;52453.34;2088134;28;20033;-74
2023/01/08 03:54:35;;;;;;;3.63;3.03;;;;;;;-146.25;84.95;52461.47;2087592;28;40657;-74
2023/01/08 03:55:36;;;;;;;4.18;3.00;;;;;;;-146.25;85.17;52469.56;2088070;28;37528;-74
2023/01/08 03:56:38;;;;;;;3.10;2.65;;;;;;;-146.25;84.69;52445.25;2088170;28;22248;-74
2023/01/08 03:57:40;;;;;;;5.72;3.33;;;;;;;-146.25;84.18;52414.84;2087743;28;40504;-74
2023/01/08 03:58:41;;;;;;;3.00;2.67;;;;;;;-146.25;84.35;52441.19;2087616;28;36348;-74
2023/01/08 03:59:43;;;;;;;4.88;2.90;;;;;;;-146.25;84.70;52427.00;2086954;28;38764;-75
2023/01/08 04:00:45;;;;;;;3.78;2.92;;;;;;;-146.25;84.92;52459.44;2087598;28;39225;-74
2023/01/08 04:01:46;;;;;;;3.25;2.85;;;;;;;-146.25;84.71;52424.97;2082514;28;38362;-74
2023/01/08 04:02:48;;;;;;;3.58;3.05;;;;;;;-146.25;84.76;52443.22;2078312;28;42686;-75
2023/01/08 04:03:50;;;;;;;3.00;2.65;;;;;;;-146.25;84.68;52493.91;2078915;28;36896;-74
2023/01/08 04:04:51;;;;;;;4.82;3.40;;;;;;;-146.25;84.56;52453.34;2078930;28;35374;-72
2023/01/08 04:05:53;;;;;;;4.30;2.92;;;;;;;-146.25;84.24;52441.19;2079143;28;43317;-74
2023/01/08 04:06:55;;;;;;;4.43;3.20;;;;;;;-146.25;84.06;52431.06;2079120;28;38407;-74
2023/01/08 04:07:57;;;;;;;3.63;3.33;;;;;;;-146.25;84.32;52410.78;2088019;28;37437;-75
2023/01/08 04:09:02;;;;;;;4.03;3.13;;;;;;;-146.25;84.43;52445.25;2087533;28;41028;-74
2023/01/08 04:10:04;;;;;;;6.50;3.60;;;;;;;-146.25;84.97;52459.44;2087820;28;42062;-74
2023/01/08 04:11:08;;;;;;;5.72;3.60;;;;;;;-146.25;84.30;52441.19;2078636;28;40468;-74
2023/01/08 04:12:10;;;;;;;4.72;3.10;;;;;;;-146.25;84.97;52453.34;2079503;28;41122;-74
2023/01/08 04:13:16;;;;;;;7.35;3.10;;;;;;;-146.25;84.89;52451.31;2087171;28;42859;-75
2023/01/08 04:14:20;;;;;;;5.85;3.30;;;;;;;-146.25;84.48;52465.53;2087933;28;36813;-75
2023/01/08 04:15:22;;;;;;;4.75;3.10;;;;;;;-146.25;84.86;52435.09;2087385;28;42131;-75
2023/01/08 04:16:24;;;;;;;4.57;3.28;;;;;;;-146.25;84.65;52451.31;2087911;28;41185;-75
2023/01/08 04:17:25;;;;;;;3.13;2.83;;;;;;;-146.25;84.40;52447.28;2087665;28;40711;-75
2023/01/08 04:18:27;;;;;;;3.90;2.83;;;;;;;-146.25;84.69;52473.63;2087926;28;43089;-74
2023/01/08 04:19:29;;;;;;;5.30;2.67;;;;;;;-146.25;84.84;52424.97;2087395;28;38322;-74
2023/01/08 04:20:33;;;;;;;5.35;3.03;;;;;;;-146.25;84.32;52424.97;2088475;28;34419;-75
2023/01/08 04:21:34;;;;;;;3.10;2.80;;;;;;;-146.25;84.97;52451.31;2090121;28;20052;-76
2023/01/08 04:22:36;;;;;;;5.55;3.15;;;;;;;-146.25;84.89;52477.69;2088750;28;20030;-75
2023/01/08 04:23:38;;;;;;;3.67;2.97;;;;;;;-146.25;84.21;52445.25;2087350;28;39854;-75
2023/01/08 04:24:40;;;;;;;3.28;2.60;;;;;;;-146.25;84.70;52441.19;2088433;28;33180;-74
2023/01/08 04:25:41;;;;;;;3.50;2.92;;;;;;;-146.25;84.43;52433.06;2087475;28;40499;-73
2023/01/08 04:26:43;;;;;;;3.83;2.95;;;;;;;-146.25;84.09;52471.59;2087823;28;40112;-74
2023/01/08 04:27:45;;;;;;;3.67;2.72;;;;;;;-146.25;84.22;52473.63;2087298;28;37663;-74
2023/01/08 04:28:46;;;;;;;4.20;2.45;;;;;;;-146.25;84.81;52437.13;2078590;28;40914;-74
2023/01/08 04:29:48;;;;;;;4.65;2.67;;;;;;;-146.25;84.73;52431.06;2078586;28;39760;-74
2023/01/08 04:30:50;;;;;;;4.03;2.47;;;;;;;-146.25;84.72;52427.00;2087797;28;39441;-74
2023/01/08 04:31:52;;;;;;;5.03;2.90;;;;;;;-146.25;84.50;52429.03;2087142;28;42827;-73
2023/01/08 04:32:53;;;;;;;3.47;2.30;;;;;;;-146.25;84.40;52416.84;2087941;28;33986;-75
2023/01/08 04:33:55;;;;;;;6.13;2.63;;;;;;;-146.25;84.22;52441.19;2087637;28;39288;-75
2023/01/08 04:34:57;;;;;;;4.22;3.08;;;;;;;-146.25;84.84;52459.44;2087966;28;38411;-74
2023/01/08 04:35:58;;;;;;;5.03;2.63;;;;;;;-146.25;84.65;52416.84;2087299;28;37071;-75
2023/01/08 04:37:01;;;;;;;5.10;2.67;;;;;;;-146.25;83.98;52457.41;2082646;28;40011;-73
2023/01/08 04:38:06;;;;;;;4.70;2.58;;;;;;;-146.25;84.63;52493.91;2079753;28;20178;-75
2023/01/08 04:39:10;;;;;;;5.40;2.65;;;;;;;-146.25;84.28;52453.34;2079196;28;42778;-74
2023/01/08 04:40:11;;;;;;;4.95;2.60;;;;;;;-146.25;84.74;52435.09;2070785;28;38676;-74
2023/01/08 04:41:13;;;;;;;4.10;2.50;;;;;;;-146.25;84.24;52388.47;2071091;28;39289;-74
2023/01/08 04:42:15;;;;;;;3.45;2.60;;;;;;;-146.25;84.97;52418.88;2079351;28;43402;-75
2023/01/08 04:43:16;;;;;;;4.05;2.65;;;;;;;-146.25;84.50;52441.19;2079312;28;36452;-74
2023/01/08 04:44:18;;;;;;;5.20;2.40;;;;;;;-146.25;84.28;52433.06;2079398;28;37720;-74
2023/01/08 04:45:20;;;;;;;3.08;2.78;;;;;;;-146.25;84.94;52420.91;2079144;28;42129;-74
2023/01/08 04:46:22;;;;;;;4.18;2.72;;;;;;;-146.25;84.59;52461.47;2080865;28;36252;-75
2023/01/08 04:47:23;;;;;;;3.60;2.78;;;;;;;-146.25;84.60;52396.59;2087634;28;40631;-75
2023/01/08 04:48:30;;;;;;;3.78;2.65;;;;;;;-146.25;84.71;52433.06;2087438;28;40662;-74
2023/01/08 04:49:31;;;;;;;6.60;2.63;;;;;;;-146.25;85.04;52410.78;2088030;28;37942;-75
2023/01/08 04:50:35;;;;;;;4.13;2.85;;;;;;;-146.25;85.20;52445.25;2087588;28;25808;-74
2023/01/08 04:51:37;;;;;;;6.30;2.60;;;;;;;-146.25;85.08;52465.53;2079900;28;34637;-75
2023/01/08 04:52:39;;;;;;;3.90;2.85;;;;;;;-146.25;85.16;52412.81;2078686;28;29701;-75
2023/01/08 04:53:40;;;;;;;2.80;2.38;;;;;;;-146.25;85.46;52433.06;2087017;28;40932;-74
2023/01/08 04:54:42;;;;;;;3.72;2.67;;;;;;;-146.25;84.59;52433.06;2079087;28;20677;-74
2023/01/08 04:55:44;;;;;;;4.32;2.63;;;;;;;-146.25;85.26;52418.88;2078733;28;43449;-74
2023/01/08 04:56:51;;;;;;;5.13;2.63;;;;;;;-146.25;85.16;52424.97;2087724;28;35439;-75
2023/01/08 04:57:55;;;;;;;5.43;3.20;;;;;;;-146.25;84.80;52437.13;2078841;28;38309;-74
2023/01/08 04:58:57;;;;;;;5.35;2.50;;;;;;;-146.25;85.26;52445.25;2078086;28;43348;-74
2023/01/08 04:59:59;;;;;;;3.33;2.75;;;;;;;-146.25;85.58;52437.13;2079660;28;20156;-74
2023/01/08 05:01:37;;;;;;;6.30;2.60;;;;;;;-146.25;85.41;52459.44;2078317;28;43371;-74